createdAt,value
2022-10-12T00:14:51.639Z,96732.78
2022-10-12T00:29:54.482Z,96748.53
2022-10-12T00:44:56.419Z,96744.19
2022-10-12T01:00:05.271Z,96755.63
2022-10-12T01:15:07.281Z,96748.00
2022-10-12T01:30:09.126Z,96736.97
2022-10-12T01:45:15.239Z,96729.88
2022-10-12T02:00:17.255Z,96732.59
2022-10-12T02:15:19.167Z,96729.97
2022-10-12T02:30:21.410Z,96717.88
2022-10-12T02:45:23.873Z,96709.91
2022-10-12T03:00:26.618Z,96704.03
2022-10-12T03:15:29.378Z,96708.28
2022-10-12T03:30:32.799Z,96706.56
2022-10-12T03:45:34.658Z,96714.09
2022-10-12T04:00:37.391Z,96723.78
2022-10-12T04:15:39.628Z,96720.44
2022-10-12T04:30:41.506Z,96721.94
2022-10-12T04:45:43.379Z,96730.38
2022-10-12T05:00:46.952Z,96728.25
2022-10-12T05:15:50.477Z,96737.88
2022-10-12T05:30:53.975Z,96731.22
2022-10-12T05:45:55.867Z,96735.19
2022-10-12T06:01:04.829Z,96744.44
2022-10-12T06:16:06.771Z,96750.19
2022-10-12T06:31:09.934Z,96761.84
2022-10-12T06:46:13.439Z,96764.81
2022-10-12T07:01:15.967Z,96758.13
2022-10-12T07:16:18.125Z,96756.34
2022-10-12T07:31:21.061Z,96752.59
2022-10-12T07:46:22.931Z,96743.38
2022-10-12T08:01:26.702Z,96735.84
2022-10-12T08:16:29.527Z,96727.69
2022-10-12T08:31:32.172Z,96725.91
2022-10-12T08:46:35.953Z,96729.72
2022-10-12T09:01:58.298Z,96729.19
2022-10-12T09:17:00.826Z,96719.91
2022-10-12T09:32:02.804Z,96725.69
2022-10-12T09:47:05.167Z,96738.25
2022-10-12T10:02:10.606Z,96725.81
2022-10-12T10:17:33.548Z,96733.81
2022-10-12T10:32:35.443Z,96740.34
2022-10-12T10:47:43.751Z,96730.38
2022-10-12T11:02:48.802Z,96734.53
2022-10-12T11:17:51.975Z,96721.03
2022-10-12T11:33:01.401Z,96716.72
2022-10-12T11:48:05.447Z,96709.47
2022-10-12T12:03:18.998Z,96705.47
2022-10-12T12:18:21.652Z,96696.34
2022-10-12T12:33:27.666Z,96688.75
2022-10-12T12:48:38.736Z,96672.63
2022-10-12T13:03:59.635Z,96673.50
2022-10-12T13:19:05.681Z,96663.50
2022-10-12T13:34:07.580Z,96660.22
2022-10-12T13:49:12.390Z,96637.16
2022-10-12T14:04:14.335Z,96634.97
2022-10-12T14:19:33.189Z,96633.09
2022-10-12T14:34:36.644Z,96635.41
2022-10-12T14:49:39.669Z,96620.66
2022-10-12T15:04:41.603Z,96616.56
2022-10-12T15:19:43.592Z,96615.91
2022-10-12T15:34:45.449Z,96613.09
2022-10-12T15:49:47.358Z,96602.75
2022-10-12T16:04:49.244Z,96615.34
2022-10-12T16:19:51.151Z,96609.41
2022-10-12T16:34:53.987Z,96607.56
2022-10-12T16:49:55.874Z,96622.03
2022-10-12T17:04:58.386Z,96623.06
2022-10-12T17:35:02.128Z,96631.97
2022-10-12T17:50:04.086Z,96626.81
2022-10-12T18:05:05.985Z,96637.16
2022-10-12T18:20:08.078Z,96647.81
2022-10-12T18:35:09.987Z,96645.84
2022-10-12T18:50:11.868Z,96644.03
2022-10-12T19:05:13.748Z,96649.25
2022-10-12T19:20:15.694Z,96640.09
2022-10-12T19:35:17.572Z,96638.59
2022-10-12T19:50:19.422Z,96630.13
2022-10-12T20:05:21.366Z,96636.66
2022-10-12T20:20:23.274Z,96626.38
2022-10-12T20:35:25.134Z,96625.06
2022-10-12T20:50:26.990Z,96636.69
2022-10-12T21:05:28.836Z,96624.91
2022-10-12T21:20:30.684Z,96621.97
2022-10-12T21:35:32.549Z,96619.97
2022-10-12T21:50:34.566Z,96611.28
2022-10-12T22:05:42.831Z,96598.03
2022-10-12T22:20:44.687Z,96604.09
2022-10-12T22:35:53.544Z,96585.38
2022-10-12T22:50:55.438Z,96602.84
2022-10-12T23:05:57.314Z,96619.25
2022-10-12T23:20:59.183Z,96604.63
2022-10-12T23:36:02.142Z,96591.28
2022-10-12T23:51:07.944Z,96585.38
